createdAt,value
2022-09-15T00:00:59.103Z,0
2022-09-15T00:03:59.436Z,0
2022-09-15T00:06:59.284Z,0
2022-09-15T00:09:59.521Z,0
2022-09-15T00:12:58.408Z,0
2022-09-15T00:15:58.436Z,0
2022-09-15T00:18:59.147Z,1.3333333333333333
2022-09-15T00:21:59.220Z,0
2022-09-15T00:24:59.269Z,0
2022-09-15T00:27:59.030Z,0
2022-09-15T00:30:59.032Z,0
2022-09-15T00:33:58.983Z,0
2022-09-15T00:36:59.034Z,0
2022-09-15T00:39:59.248Z,0
2022-09-15T00:42:58.929Z,0
2022-09-15T00:45:58.889Z,0.3333333333333333
2022-09-15T00:48:58.833Z,0
2022-09-15T00:51:58.856Z,0
2022-09-15T00:55:00.229Z,0
2022-09-15T00:57:59.305Z,0
2022-09-15T01:00:59.015Z,0
2022-09-15T01:03:59.065Z,0
2022-09-15T01:06:58.670Z,0
2022-09-15T01:09:59.002Z,0.3333333333333333
2022-09-15T01:12:58.606Z,0
2022-09-15T01:15:58.800Z,0
2022-09-15T01:18:58.460Z,0.3333333333333333
2022-09-15T01:21:59.835Z,0.3333333333333333
2022-09-15T01:24:59.166Z,0
2022-09-15T01:27:58.329Z,0
2022-09-15T01:30:58.536Z,0
2022-09-15T01:33:58.774Z,0
2022-09-15T01:36:58.655Z,0
2022-09-15T01:39:59.135Z,0
2022-09-15T01:42:59.170Z,0
2022-09-15T01:45:59.175Z,0
2022-09-15T01:48:58.446Z,0
2022-09-15T01:51:58.945Z,0
2022-09-15T01:54:58.829Z,0
2022-09-15T01:57:58.831Z,0
2022-09-15T02:00:59.936Z,0
2022-09-15T02:03:58.635Z,0
2022-09-15T02:06:58.831Z,0
2022-09-15T02:10:00.212Z,0
2022-09-15T02:12:58.805Z,0
2022-09-15T02:15:58.792Z,0
2022-09-15T02:18:58.366Z,0
2022-09-15T02:21:58.530Z,0
2022-09-15T02:24:58.973Z,0
2022-09-15T02:27:58.768Z,0
2022-09-15T02:30:59.335Z,0
2022-09-15T02:33:59.306Z,0
2022-09-15T02:36:58.574Z,0
2022-09-15T02:39:59.912Z,0
2022-09-15T02:42:58.495Z,0
2022-09-15T02:45:58.998Z,0
2022-09-15T02:48:58.817Z,0
2022-09-15T02:51:59.020Z,0
2022-09-15T02:54:59.176Z,0
2022-09-15T02:57:59.386Z,0
2022-09-15T03:00:59.263Z,0
2022-09-15T03:03:58.992Z,0
2022-09-15T03:06:58.995Z,0
2022-09-15T03:09:59.674Z,0.3333333333333333
2022-09-15T03:12:58.885Z,0
2022-09-15T03:15:59.148Z,0
2022-09-15T03:18:58.768Z,0.3333333333333333
2022-09-15T03:21:59.057Z,0
2022-09-15T03:24:59.289Z,0
2022-09-15T03:27:58.775Z,0
2022-09-15T03:30:58.650Z,0
2022-09-15T03:33:58.601Z,0
2022-09-15T03:36:58.481Z,0
2022-09-15T03:39:59.222Z,0
2022-09-15T03:42:58.500Z,0.3333333333333333
2022-09-15T03:45:59.045Z,0
2022-09-15T03:48:58.825Z,0
2022-09-15T03:51:58.542Z,0
2022-09-15T03:54:58.619Z,0
2022-09-15T03:57:58.239Z,0
2022-09-15T04:00:59.603Z,0
2022-09-15T04:03:59.049Z,0
2022-09-15T04:06:59.180Z,0
2022-09-15T04:09:59.471Z,0
2022-09-15T04:12:58.977Z,0
2022-09-15T04:15:59.028Z,0
2022-09-15T04:18:58.645Z,0
2022-09-15T04:21:58.880Z,0
2022-09-15T04:24:59.280Z,0
2022-09-15T04:27:58.885Z,0
2022-09-15T04:30:59.809Z,0
2022-09-15T04:33:58.263Z,0
2022-09-15T04:36:58.820Z,0
2022-09-15T04:39:59.003Z,0
2022-09-15T04:42:58.590Z,0
2022-09-15T04:45:59.742Z,1.6666666666666667
2022-09-15T04:48:59.170Z,2.6666666666666665
2022-09-15T04:51:59.563Z,4
2022-09-15T04:54:58.905Z,4.666666666666667
2022-09-15T04:57:59.406Z,4
2022-09-15T05:00:59.000Z,7
2022-09-15T05:03:59.606Z,7
2022-09-15T05:06:59.273Z,6.666666666666667
2022-09-15T05:09:59.383Z,6.666666666666667
2022-09-15T05:12:59.115Z,10.333333333333334
2022-09-15T05:15:59.431Z,10.666666666666666
2022-09-15T05:18:59.183Z,11
2022-09-15T05:21:58.955Z,11
2022-09-15T05:24:59.582Z,15.333333333333334
2022-09-15T05:27:59.387Z,20.666666666666668
2022-09-15T05:30:59.908Z,15
2022-09-15T05:33:58.819Z,18.333333333333332
2022-09-15T05:36:59.085Z,20
2022-09-15T05:39:59.007Z,26
2022-09-15T05:42:58.926Z,32.666666666666664
2022-09-15T05:45:58.853Z,51.666666666666664
2022-09-15T05:48:59.505Z,76.66666666666667
2022-09-15T05:51:58.860Z,122.66666666666667
2022-09-15T05:54:59.359Z,118.33333333333333
2022-09-15T05:57:59.017Z,102.33333333333333
2022-09-15T06:00:59.312Z,163.33333333333334
2022-09-15T06:03:58.746Z,82.66666666666667
2022-09-15T06:06:59.330Z,92.33333333333333
2022-09-15T06:09:59.460Z,75.66666666666667
2022-09-15T06:12:59.430Z,119.33333333333333
2022-09-15T06:15:59.338Z,128.33333333333334
2022-09-15T06:18:59.639Z,207
2022-09-15T06:21:59.442Z,243.33333333333334
2022-09-15T06:24:58.617Z,285
2022-09-15T06:27:59.490Z,241.66666666666666
2022-09-15T06:30:59.586Z,208.66666666666666
2022-09-15T06:33:58.941Z,206
2022-09-15T06:36:58.952Z,392.3333333333333
2022-09-15T06:39:59.113Z,359.6666666666667
2022-09-15T06:42:58.632Z,244.66666666666666
2022-09-15T06:45:59.092Z,328.3333333333333
2022-09-15T06:48:58.780Z,250
2022-09-15T06:51:58.787Z,176.33333333333334
2022-09-15T06:54:58.933Z,222.33333333333334
2022-09-15T06:57:59.003Z,220
2022-09-15T07:00:59.348Z,223
2022-09-15T07:03:59.775Z,243
2022-09-15T07:06:59.597Z,287
2022-09-15T07:09:59.423Z,180
2022-09-15T07:12:59.135Z,140
2022-09-15T07:15:59.620Z,174
2022-09-15T07:18:59.333Z,257.3333333333333
2022-09-15T07:21:58.470Z,229
2022-09-15T07:24:59.459Z,166.66666666666666
2022-09-15T07:27:58.657Z,254.33333333333334
2022-09-15T07:31:00.063Z,304.6666666666667
2022-09-15T07:33:59.352Z,343.6666666666667
2022-09-15T07:36:58.362Z,272
2022-09-15T07:39:58.899Z,299
2022-09-15T07:42:59.081Z,217
2022-09-15T07:45:58.519Z,213
2022-09-15T07:48:59.157Z,180
2022-09-15T07:51:59.481Z,136
2022-09-15T07:54:58.712Z,101.66666666666667
2022-09-15T07:57:58.870Z,75.33333333333333
2022-09-15T08:00:59.355Z,117.33333333333333
2022-09-15T08:03:58.576Z,145
2022-09-15T08:06:59.027Z,173.33333333333334
2022-09-15T08:09:58.781Z,182
2022-09-15T08:12:58.667Z,328
2022-09-15T08:15:59.425Z,421.3333333333333
2022-09-15T08:18:59.267Z,386
2022-09-15T08:21:58.937Z,238.33333333333334
2022-09-15T08:24:58.668Z,210.66666666666666
2022-09-15T08:27:58.622Z,194
2022-09-15T08:30:58.714Z,174.33333333333334
2022-09-15T08:33:58.600Z,161.66666666666666
2022-09-15T08:36:58.746Z,141.66666666666666
2022-09-15T08:39:59.684Z,171.66666666666666
2022-09-15T08:42:59.258Z,239.33333333333334
2022-09-15T08:45:58.692Z,284.3333333333333
2022-09-15T08:49:02.731Z,217
2022-09-15T08:51:58.261Z,201.66666666666666
2022-09-15T08:54:59.210Z,127.33333333333333
2022-09-15T08:57:59.221Z,216.66666666666666
2022-09-15T09:00:59.076Z,300.3333333333333
2022-09-15T09:03:58.627Z,487.3333333333333
2022-09-15T09:06:58.740Z,432.3333333333333
2022-09-15T09:09:58.901Z,269.6666666666667
2022-09-15T09:12:58.931Z,577.6666666666666
2022-09-15T09:15:59.080Z,531.6666666666666
2022-09-15T09:18:58.727Z,474.3333333333333
2022-09-15T09:21:59.799Z,314.6666666666667
2022-09-15T09:24:59.428Z,432.6666666666667
2022-09-15T09:27:58.963Z,593
2022-09-15T09:30:58.721Z,561.3333333333334
2022-09-15T09:33:58.706Z,540.6666666666666
2022-09-15T09:36:58.867Z,543.6666666666666
2022-09-15T09:39:59.437Z,439
2022-09-15T09:42:59.421Z,284.3333333333333
2022-09-15T09:45:59.220Z,190
2022-09-15T09:48:59.106Z,151.33333333333334
2022-09-15T09:51:59.373Z,191.66666666666666
2022-09-15T09:54:59.457Z,208
2022-09-15T09:57:58.473Z,193
2022-09-15T10:00:59.502Z,208.66666666666666
2022-09-15T10:03:59.292Z,158.66666666666666
2022-09-15T10:06:59.232Z,157.66666666666666
2022-09-15T10:09:59.626Z,240.33333333333334
2022-09-15T10:12:59.533Z,260
2022-09-15T10:15:58.471Z,340
2022-09-15T10:18:59.012Z,485.6666666666667
2022-09-15T10:21:59.008Z,617.6666666666666
2022-09-15T10:24:59.011Z,426.3333333333333
2022-09-15T10:27:58.943Z,480.6666666666667
2022-09-15T10:30:59.739Z,279
2022-09-15T10:33:59.023Z,437.3333333333333
2022-09-15T10:36:59.446Z,376.6666666666667
2022-09-15T10:39:59.770Z,505
2022-09-15T10:42:59.598Z,512.3333333333334
2022-09-15T10:45:58.573Z,419.3333333333333
2022-09-15T10:48:59.086Z,444.3333333333333
2022-09-15T10:51:59.324Z,491
2022-09-15T10:54:58.962Z,856.6666666666666
2022-09-15T10:57:58.929Z,845.6666666666666
2022-09-15T11:00:59.654Z,612.6666666666666
2022-09-15T11:04:16.446Z,587.3333333333334
2022-09-15T11:06:59.128Z,306.6666666666667
2022-09-15T11:09:59.417Z,262.3333333333333
2022-09-15T11:12:58.460Z,259
2022-09-15T11:15:59.325Z,134
2022-09-15T11:18:59.149Z,128.33333333333334
2022-09-15T11:21:58.206Z,201.66666666666666
2022-09-15T11:24:59.025Z,295
2022-09-15T11:27:59.273Z,152
2022-09-15T11:30:59.127Z,76
2022-09-15T11:33:58.978Z,181.33333333333334
2022-09-15T11:36:59.096Z,217
2022-09-15T11:39:59.434Z,223.66666666666666
2022-09-15T11:42:58.334Z,290
2022-09-15T11:45:59.437Z,135
2022-09-15T11:48:58.490Z,134.33333333333334
2022-09-15T11:51:59.082Z,193
2022-09-15T11:54:59.121Z,140
2022-09-15T11:57:59.206Z,211.33333333333334
2022-09-15T12:00:59.727Z,178.33333333333334
2022-09-15T12:03:59.101Z,189.33333333333334
2022-09-15T12:09:58.809Z,230
2022-09-15T12:12:59.239Z,247.33333333333334
2022-09-15T12:15:59.875Z,258.6666666666667
2022-09-15T12:18:59.353Z,244.66666666666666
2022-09-15T12:21:59.073Z,255.66666666666666
2022-09-15T12:25:01.110Z,362.3333333333333
2022-09-15T12:27:58.584Z,366
2022-09-15T12:30:59.663Z,235.33333333333334
2022-09-15T12:33:59.217Z,245
2022-09-15T12:39:59.448Z,232.66666666666666
2022-09-15T12:42:58.689Z,133.66666666666666
2022-09-15T12:45:59.287Z,111
2022-09-15T12:48:59.045Z,108.66666666666667
2022-09-15T12:51:58.924Z,143
2022-09-15T12:54:59.076Z,266.6666666666667
2022-09-15T12:57:58.908Z,371.3333333333333
2022-09-15T13:01:17.546Z,800
2022-09-15T13:03:58.767Z,596.6666666666666
2022-09-15T13:06:59.937Z,452.3333333333333
2022-09-15T13:09:58.955Z,209
2022-09-15T13:12:58.704Z,213.33333333333334
2022-09-15T13:15:58.834Z,280
2022-09-15T13:18:59.565Z,340
2022-09-15T13:21:59.438Z,216
2022-09-15T13:25:01.679Z,215.33333333333334
2022-09-15T13:27:58.696Z,138
2022-09-15T13:31:00.420Z,166.66666666666666
2022-09-15T13:39:58.728Z,347.3333333333333
2022-09-15T13:42:59.159Z,460.3333333333333
2022-09-15T13:45:59.159Z,429
2022-09-15T13:48:59.222Z,383.3333333333333
2022-09-15T13:51:59.651Z,315.6666666666667
2022-09-15T13:54:58.958Z,281
2022-09-15T14:00:59.610Z,464.6666666666667
2022-09-15T14:03:58.549Z,418.6666666666667
2022-09-15T14:07:00.979Z,357
2022-09-15T14:09:59.912Z,361
2022-09-15T14:12:58.974Z,367.3333333333333
2022-09-15T14:15:59.319Z,422.6666666666667
2022-09-15T14:18:59.348Z,446
2022-09-15T14:21:59.868Z,451.3333333333333
2022-09-15T14:24:59.521Z,435.3333333333333
2022-09-15T14:27:59.173Z,427.3333333333333
2022-09-15T14:30:59.650Z,283
2022-09-15T14:33:59.906Z,235
2022-09-15T14:36:58.851Z,222.33333333333334
2022-09-15T14:39:59.868Z,238.33333333333334
2022-09-15T14:42:59.322Z,240.33333333333334
2022-09-15T14:46:04.265Z,223
2022-09-15T14:48:59.405Z,220
2022-09-15T14:51:59.288Z,205
2022-09-15T14:54:59.423Z,164
2022-09-15T14:57:59.259Z,132.33333333333334
2022-09-15T15:00:59.233Z,135
2022-09-15T15:03:59.137Z,149.66666666666666
2022-09-15T15:06:59.984Z,134.33333333333334
2022-09-15T15:09:59.773Z,126
2022-09-15T15:12:59.236Z,147.33333333333334
2022-09-15T15:15:59.595Z,393.6666666666667
2022-09-15T15:18:58.928Z,571.3333333333334
2022-09-15T15:21:59.474Z,521
2022-09-15T15:24:59.588Z,555
2022-09-15T15:27:59.249Z,551
2022-09-15T15:30:59.387Z,528
2022-09-15T15:33:58.726Z,481
2022-09-15T15:36:58.776Z,449.3333333333333
2022-09-15T15:39:59.838Z,417.3333333333333
2022-09-15T15:43:00.129Z,388
2022-09-15T15:45:59.359Z,349
2022-09-15T15:48:59.381Z,423
2022-09-15T15:51:59.434Z,389.3333333333333
2022-09-15T15:54:59.705Z,442.6666666666667
2022-09-15T15:57:58.988Z,364.6666666666667
2022-09-15T16:00:58.943Z,381
2022-09-15T16:03:59.006Z,406
2022-09-15T16:06:59.434Z,340.3333333333333
2022-09-15T16:09:59.254Z,301.3333333333333
2022-09-15T16:12:58.743Z,314.6666666666667
2022-09-15T16:15:59.206Z,251.33333333333334
2022-09-15T16:18:59.281Z,214.66666666666666
2022-09-15T16:21:58.745Z,204.66666666666666
2022-09-15T16:24:59.318Z,196.33333333333334
2022-09-15T16:27:59.383Z,204.33333333333334
2022-09-15T16:31:00.078Z,214
2022-09-15T16:33:59.532Z,202
2022-09-15T16:36:59.828Z,164.66666666666666
2022-09-15T16:39:59.782Z,163
2022-09-15T16:42:59.181Z,154.33333333333334
2022-09-15T16:45:59.072Z,153
2022-09-15T16:48:59.437Z,146.33333333333334
2022-09-15T16:51:58.652Z,124.33333333333333
2022-09-15T16:54:59.472Z,106
2022-09-15T16:57:59.763Z,75.33333333333333
2022-09-15T17:00:59.599Z,64.33333333333333
2022-09-15T17:03:59.403Z,56.666666666666664
2022-09-15T17:06:59.664Z,50.333333333333336
2022-09-15T17:09:58.937Z,45
2022-09-15T17:12:58.490Z,39.333333333333336
2022-09-15T17:15:59.583Z,33
2022-09-15T17:18:59.480Z,29
2022-09-15T17:21:59.181Z,23.333333333333332
2022-09-15T17:24:59.367Z,18
2022-09-15T17:27:58.761Z,14.333333333333334
2022-09-15T17:30:59.348Z,11.666666666666666
2022-09-15T17:33:59.053Z,9.333333333333334
2022-09-15T17:36:59.048Z,6.666666666666667
2022-09-15T17:39:59.380Z,4.666666666666667
2022-09-15T17:42:59.030Z,1.3333333333333333
2022-09-15T17:45:59.390Z,1
2022-09-15T17:48:59.502Z,0.6666666666666666
2022-09-15T17:51:59.934Z,0.3333333333333333
2022-09-15T17:54:58.762Z,0
2022-09-15T17:57:58.797Z,0
2022-09-15T18:01:26.283Z,0
2022-09-15T18:03:58.738Z,0
2022-09-15T18:06:59.512Z,0
2022-09-15T18:09:59.233Z,0
2022-09-15T18:12:58.899Z,0
2022-09-15T18:15:58.956Z,0
2022-09-15T18:18:58.644Z,0
2022-09-15T18:21:58.769Z,0
2022-09-15T18:24:59.043Z,0
2022-09-15T18:27:59.463Z,0
2022-09-15T18:30:59.394Z,0.3333333333333333
2022-09-15T18:33:58.874Z,0
2022-09-15T18:36:58.415Z,0
2022-09-15T18:39:58.847Z,0.6666666666666666
2022-09-15T18:42:59.372Z,0.3333333333333333
2022-09-15T18:45:59.431Z,0
2022-09-15T18:48:58.542Z,0
2022-09-15T18:51:59.339Z,0
2022-09-15T18:54:58.475Z,0.3333333333333333
2022-09-15T18:58:00.967Z,0.6666666666666666
2022-09-15T19:00:59.837Z,0
2022-09-15T19:03:59.148Z,0
2022-09-15T19:06:59.853Z,0.3333333333333333
2022-09-15T19:09:59.473Z,0
2022-09-15T19:12:59.808Z,0
2022-09-15T19:15:58.971Z,0
2022-09-15T19:18:59.070Z,0.3333333333333333
2022-09-15T19:21:58.668Z,0
2022-09-15T19:24:59.594Z,0
2022-09-15T19:27:59.293Z,0
2022-09-15T19:30:59.774Z,0
2022-09-15T19:33:59.328Z,0
2022-09-15T19:36:58.727Z,0
2022-09-15T19:39:59.421Z,0
2022-09-15T19:42:59.809Z,0
2022-09-15T19:45:58.775Z,0
2022-09-15T19:48:58.571Z,0
2022-09-15T19:51:59.189Z,0
2022-09-15T19:54:58.789Z,0
2022-09-15T19:57:59.076Z,0
2022-09-15T20:00:59.690Z,0
2022-09-15T20:03:58.959Z,0
2022-09-15T20:06:59.102Z,0
2022-09-15T20:09:58.982Z,0
2022-09-15T20:12:58.558Z,0
2022-09-15T20:15:58.963Z,0
2022-09-15T20:18:58.768Z,0
2022-09-15T20:21:58.746Z,0
2022-09-15T20:24:59.147Z,0
2022-09-15T20:27:58.463Z,0
2022-09-15T20:30:59.175Z,0
2022-09-15T20:33:58.771Z,0
2022-09-15T20:36:58.593Z,0
2022-09-15T20:39:59.458Z,0
2022-09-15T20:42:58.930Z,0
2022-09-15T20:45:59.581Z,0
2022-09-15T20:48:58.827Z,0
2022-09-15T20:51:58.417Z,0
2022-09-15T20:54:58.923Z,0
2022-09-15T20:57:58.623Z,0.3333333333333333
2022-09-15T21:00:59.313Z,0.3333333333333333
2022-09-15T21:03:58.521Z,0
2022-09-15T21:06:58.760Z,0
2022-09-15T21:09:59.324Z,0
2022-09-15T21:12:58.558Z,0.3333333333333333
2022-09-15T21:15:58.937Z,0
2022-09-15T21:18:58.900Z,0.6666666666666666
2022-09-15T21:21:59.408Z,0
2022-09-15T21:24:58.963Z,0
2022-09-15T21:27:58.645Z,0.3333333333333333
2022-09-15T21:30:59.063Z,0
2022-09-15T21:33:58.862Z,0
2022-09-15T21:36:59.336Z,0
2022-09-15T21:39:59.124Z,0
2022-09-15T21:42:59.277Z,0
2022-09-15T21:45:59.767Z,0
2022-09-15T21:48:58.634Z,0
2022-09-15T21:51:58.594Z,0
2022-09-15T21:54:58.474Z,1
2022-09-15T21:57:58.650Z,0
2022-09-15T22:00:59.687Z,0
2022-09-15T22:03:58.577Z,0.3333333333333333
2022-09-15T22:06:59.293Z,0
2022-09-15T22:10:00.223Z,0
2022-09-15T22:12:59.149Z,0
2022-09-15T22:15:58.488Z,0
2022-09-15T22:18:58.872Z,0
2022-09-15T22:21:59.234Z,0
2022-09-15T22:24:59.033Z,0
2022-09-15T22:27:59.004Z,0
2022-09-15T22:30:59.576Z,0
2022-09-15T22:33:58.871Z,0
2022-09-15T22:36:58.253Z,0
2022-09-15T22:39:59.752Z,0
2022-09-15T22:42:58.163Z,0
2022-09-15T22:45:59.105Z,0.3333333333333333
2022-09-15T22:48:58.753Z,0.3333333333333333
2022-09-15T22:51:59.205Z,0
2022-09-15T22:54:58.622Z,0
2022-09-15T22:57:58.712Z,1
2022-09-15T23:00:59.633Z,0
2022-09-15T23:03:58.779Z,0
2022-09-15T23:06:58.879Z,0
2022-09-15T23:09:59.537Z,0
2022-09-15T23:12:59.248Z,0
2022-09-15T23:15:58.421Z,1
2022-09-15T23:18:58.437Z,0
2022-09-15T23:21:58.579Z,0
2022-09-15T23:24:59.015Z,0
2022-09-15T23:27:59.221Z,0
2022-09-15T23:30:58.552Z,0
2022-09-15T23:33:59.160Z,0
2022-09-15T23:36:59.169Z,0
2022-09-15T23:39:59.074Z,0
2022-09-15T23:42:59.360Z,0
2022-09-15T23:45:58.948Z,0
2022-09-15T23:48:58.966Z,0
2022-09-15T23:51:59.075Z,0.3333333333333333
2022-09-15T23:54:58.910Z,0.6666666666666666
2022-09-15T23:57:58.790Z,0
